sensor_id;sensor_type;location;lat;lon;timestamp;pressure;altitude;pressure_sealevel;temperature;humidity
70815;BME280;58428;49.478;10.986;2023-04-07T00:01:02;98472.03;;;4.17;100.00
70815;BME280;58428;49.478;10.986;2023-04-07T00:03:27;98474.97;;;4.15;100.00
70815;BME280;58428;49.478;10.986;2023-04-07T00:05:54;98478.22;;;4.12;100.00
70815;BME280;58428;49.478;10.986;2023-04-07T00:08:19;98477.41;;;4.12;100.00
70815;BME280;58428;49.478;10.986;2023-04-07T00:10:50;98470.25;;;4.07;100.00
70815;BME280;58428;49.478;10.986;2023-04-07T00:13:21;98475.00;;;3.87;100.00
70815;BME280;58428;49.478;10.986;2023-04-07T00:15:51;98479.53;;;3.59;100.00
70815;BME280;58428;49.478;10.986;2023-04-07T00:18:17;98486.94;;;3.33;100.00
70815;BME280;58428;49.478;10.986;2023-04-07T00:20:42;98489.50;;;3.10;100.00
70815;BME280;58428;49.478;10.986;2023-04-07T00:23:19;98486.50;;;3.17;100.00
70815;BME280;58428;49.478;10.986;2023-04-07T00:25:50;98489.22;;;3.12;100.00
70815;BME280;58428;49.478;10.986;2023-04-07T00:28:21;98491.69;;;2.98;100.00
70815;BME280;58428;49.478;10.986;2023-04-07T00:30:49;98491.47;;;2.90;100.00
70815;BME280;58428;49.478;10.986;2023-04-07T00:33:17;98486.41;;;2.89;100.00
70815;BME280;58428;49.478;10.986;2023-04-07T00:35:42;98486.06;;;3.00;100.00
70815;BME280;58428;49.478;10.986;2023-04-07T00:38:08;98484.41;;;3.14;100.00
70815;BME280;58428;49.478;10.986;2023-04-07T00:40:33;98481.13;;;3.22;100.00
70815;BME280;58428;49.478;10.986;2023-04-07T00:43:01;98466.72;;;3.18;100.00
70815;BME280;58428;49.478;10.986;2023-04-07T00:45:27;98456.56;;;3.20;100.00
70815;BME280;58428;49.478;10.986;2023-04-07T00:47:52;98454.94;;;3.24;100.00
70815;BME280;58428;49.478;10.986;2023-04-07T00:50:18;98449.78;;;3.32;100.00
70815;BME280;58428;49.478;10.986;2023-04-07T00:52:49;98445.97;;;3.38;100.00
70815;BME280;58428;49.478;10.986;2023-04-07T00:55:15;98451.59;;;3.36;100.00
70815;BME280;58428;49.478;10.986;2023-04-07T00:57:41;98444.41;;;3.37;100.00
70815;BME280;58428;49.478;10.986;2023-04-07T01:00:07;98452.13;;;3.38;100.00
70815;BME280;58428;49.478;10.986;2023-04-07T01:03:04;98444.06;;;3.43;100.00
70815;BME280;58428;49.478;10.986;2023-04-07T01:05:41;98442.72;;;3.46;100.00
70815;BME280;58428;49.478;10.986;2023-04-07T01:08:20;98439.19;;;3.50;100.00
70815;BME280;58428;49.478;10.986;2023-04-07T01:11:02;98437.03;;;3.52;100.00
70815;BME280;58428;49.478;10.986;2023-04-07T01:14:18;98433.81;;;3.55;100.00
70815;BME280;58428;49.478;10.986;2023-04-07T01:16:34;98434.22;;;3.67;100.00
70815;BME280;58428;49.478;10.986;2023-04-07T01:22:14;98427.81;;;3.68;100.00
70815;BME280;58428;49.478;10.986;2023-04-07T01:32:13;98428.75;;;3.82;100.00
70815;BME280;58428;49.478;10.986;2023-04-07T01:34:46;98428.13;;;3.90;100.00
70815;BME280;58428;49.478;10.986;2023-04-07T01:37:13;98429.88;;;3.76;100.00
70815;BME280;58428;49.478;10.986;2023-04-07T01:39:40;98425.66;;;3.70;100.00
70815;BME280;58428;49.478;10.986;2023-04-07T01:44:53;98425.00;;;3.55;100.00
70815;BME280;58428;49.478;10.986;2023-04-07T01:47:27;98419.66;;;3.50;100.00
70815;BME280;58428;49.478;10.986;2023-04-07T01:50:05;98419.72;;;3.45;100.00
70815;BME280;58428;49.478;10.986;2023-04-07T01:52:34;98420.00;;;3.43;100.00
70815;BME280;58428;49.478;10.986;2023-04-07T01:55:03;98415.81;;;3.32;100.00
70815;BME280;58428;49.478;10.986;2023-04-07T01:57:28;98412.34;;;3.32;100.00
70815;BME280;58428;49.478;10.986;2023-04-07T01:59:54;98412.38;;;3.27;100.00
70815;BME280;58428;49.478;10.986;2023-04-07T02:02:19;98409.16;;;3.30;100.00
70815;BME280;58428;49.478;10.986;2023-04-07T02:04:57;98410.19;;;3.34;100.00
70815;BME280;58428;49.478;10.986;2023-04-07T02:07:37;98403.19;;;3.38;100.00
70815;BME280;58428;49.478;10.986;2023-04-07T02:10:08;98403.44;;;3.41;100.00
70815;BME280;58428;49.478;10.986;2023-04-07T02:12:36;98399.69;;;3.42;100.00
70815;BME280;58428;49.478;10.986;2023-04-07T02:15:42;98402.13;;;3.39;100.00
70815;BME280;58428;49.478;10.986;2023-04-07T02:18:09;98401.63;;;3.37;100.00
70815;BME280;58428;49.478;10.986;2023-04-07T02:20:40;98403.38;;;3.46;100.00
70815;BME280;58428;49.478;10.986;2023-04-07T02:23:07;98398.28;;;3.50;100.00
70815;BME280;58428;49.478;10.986;2023-04-07T02:25:33;98393.00;;;3.45;100.00
70815;BME280;58428;49.478;10.986;2023-04-07T02:28:00;98398.34;;;3.45;100.00
70815;BME280;58428;49.478;10.986;2023-04-07T02:30:27;98398.38;;;3.40;100.00
70815;BME280;58428;49.478;10.986;2023-04-07T02:32:54;98394.94;;;3.34;100.00
70815;BME280;58428;49.478;10.986;2023-04-07T02:35:40;98400.97;;;3.17;100.00
70815;BME280;58428;49.478;10.986;2023-04-07T02:38:08;98398.19;;;2.98;100.00
70815;BME280;58428;49.478;10.986;2023-04-07T02:40:42;98402.22;;;2.91;100.00
70815;BME280;58428;49.478;10.986;2023-04-07T02:43:11;98394.16;;;2.96;100.00
70815;BME280;58428;49.478;10.986;2023-04-07T02:45:40;98396.19;;;3.14;100.00
70815;BME280;58428;49.478;10.986;2023-04-07T02:48:11;98400.78;;;3.03;100.00
70815;BME280;58428;49.478;10.986;2023-04-07T02:50:36;98410.00;;;2.88;100.00
70815;BME280;58428;49.478;10.986;2023-04-07T02:53:02;98407.13;;;2.74;100.00
70815;BME280;58428;49.478;10.986;2023-04-07T02:55:27;98396.44;;;2.74;100.00
70815;BME280;58428;49.478;10.986;2023-04-07T02:57:52;98408.75;;;2.70;100.00
70815;BME280;58428;49.478;10.986;2023-04-07T03:00:18;98408.81;;;2.65;100.00
70815;BME280;58428;49.478;10.986;2023-04-07T03:02:48;98402.06;;;2.73;100.00
70815;BME280;58428;49.478;10.986;2023-04-07T03:05:14;98404.63;;;2.92;100.00
70815;BME280;58428;49.478;10.986;2023-04-07T03:10:12;98401.66;;;2.94;100.00
70815;BME280;58428;49.478;10.986;2023-04-07T03:12:38;98394.16;;;2.96;100.00
70815;BME280;58428;49.478;10.986;2023-04-07T03:15:10;98390.69;;;3.00;100.00
70815;BME280;58428;49.478;10.986;2023-04-07T03:17:39;98400.28;;;3.01;100.00
70815;BME280;58428;49.478;10.986;2023-04-07T03:20:12;98390.16;;;2.98;100.00
70815;BME280;58428;49.478;10.986;2023-04-07T03:22:38;98392.00;;;3.03;100.00
70815;BME280;58428;49.478;10.986;2023-04-07T03:25:04;98394.91;;;3.06;100.00
70815;BME280;58428;49.478;10.986;2023-04-07T03:27:29;98394.16;;;2.96;100.00
70815;BME280;58428;49.478;10.986;2023-04-07T03:29:59;98390.63;;;3.05;100.00
70815;BME280;58428;49.478;10.986;2023-04-07T03:32:27;98389.56;;;3.06;100.00
70815;BME280;58428;49.478;10.986;2023-04-07T03:34:55;98390.34;;;3.12;100.00
70815;BME280;58428;49.478;10.986;2023-04-07T03:37:21;98384.75;;;3.08;100.00
70815;BME280;58428;49.478;10.986;2023-04-07T03:39:46;98387.84;;;3.20;100.00
70815;BME280;58428;49.478;10.986;2023-04-07T03:42:13;98387.56;;;3.22;100.00
70815;BME280;58428;49.478;10.986;2023-04-07T03:44:38;98385.72;;;3.17;100.00
70815;BME280;58428;49.478;10.986;2023-04-07T03:47:07;98385.97;;;3.21;100.00
70815;BME280;58428;49.478;10.986;2023-04-07T03:49:34;98384.41;;;3.15;100.00
70815;BME280;58428;49.478;10.986;2023-04-07T03:52:03;98386.56;;;3.13;100.00
70815;BME280;58428;49.478;10.986;2023-04-07T03:54:29;98381.31;;;3.03;100.00
70815;BME280;58428;49.478;10.986;2023-04-07T03:56:55;98387.94;;;3.10;100.00
70815;BME280;58428;49.478;10.986;2023-04-07T03:59:21;98383.94;;;3.08;100.00
70815;BME280;58428;49.478;10.986;2023-04-07T04:02:07;98386.22;;;3.24;100.00
70815;BME280;58428;49.478;10.986;2023-04-07T04:04:40;98381.28;;;3.36;100.00
70815;BME280;58428;49.478;10.986;2023-04-07T04:07:05;98380.16;;;3.42;100.00
70815;BME280;58428;49.478;10.986;2023-04-07T04:09:45;98376.66;;;3.46;100.00
70815;BME280;58428;49.478;10.986;2023-04-07T04:12:29;98372.91;;;3.47;100.00
70815;BME280;58428;49.478;10.986;2023-04-07T04:15:01;98370.47;;;3.51;100.00
70815;BME280;58428;49.478;10.986;2023-04-07T04:17:32;98375.22;;;3.59;100.00
70815;BME280;58428;49.478;10.986;2023-04-07T04:19:58;98369.75;;;3.68;100.00
70815;BME280;58428;49.478;10.986;2023-04-07T04:22:31;98375.34;;;3.72;100.00
70815;BME280;58428;49.478;10.986;2023-04-07T04:25:01;98385.63;;;3.60;100.00
70815;BME280;58428;49.478;10.986;2023-04-07T04:27:27;98379.69;;;3.63;100.00
70815;BME280;58428;49.478;10.986;2023-04-07T04:29:54;98367.19;;;3.59;100.00
70815;BME280;58428;49.478;10.986;2023-04-07T04:32:20;98377.09;;;3.58;100.00
70815;BME280;58428;49.478;10.986;2023-04-07T04:34:45;98382.19;;;3.55;100.00
70815;BME280;58428;49.478;10.986;2023-04-07T04:37:11;98374.53;;;3.43;100.00
70815;BME280;58428;49.478;10.986;2023-04-07T04:39:36;98376.44;;;3.43;100.00
70815;BME280;58428;49.478;10.986;2023-04-07T04:42:03;98373.53;;;3.34;100.00
70815;BME280;58428;49.478;10.986;2023-04-07T04:44:29;98376.28;;;3.29;100.00
70815;BME280;58428;49.478;10.986;2023-04-07T04:46:57;98376.47;;;3.38;100.00
70815;BME280;58428;49.478;10.986;2023-04-07T04:49:23;98372.06;;;3.52;100.00
70815;BME280;58428;49.478;10.986;2023-04-07T04:52:08;98374.19;;;3.55;100.00
70815;BME280;58428;49.478;10.986;2023-04-07T04:54:48;98373.19;;;3.46;100.00
70815;BME280;58428;49.478;10.986;2023-04-07T04:57:32;98376.84;;;3.55;100.00
70815;BME280;58428;49.478;10.986;2023-04-07T05:00:03;98373.69;;;3.76;100.00
70815;BME280;58428;49.478;10.986;2023-04-07T05:05:30;98380.88;;;3.80;100.00
70815;BME280;58428;49.478;10.986;2023-04-07T05:11:06;98379.91;;;4.18;100.00
70815;BME280;58428;49.478;10.986;2023-04-07T05:13:52;98366.19;;;4.24;100.00
70815;BME280;58428;49.478;10.986;2023-04-07T05:16:32;98369.53;;;4.35;100.00
70815;BME280;58428;49.478;10.986;2023-04-07T05:22:24;98370.94;;;4.69;100.00
70815;BME280;58428;49.478;10.986;2023-04-07T05:25:02;98368.19;;;4.74;100.00
70815;BME280;58428;49.478;10.986;2023-04-07T05:27:51;98354.66;;;4.65;100.00
70815;BME280;58428;49.478;10.986;2023-04-07T05:30:22;98359.34;;;4.55;100.00
70815;BME280;58428;49.478;10.986;2023-04-07T05:33:07;98368.31;;;4.45;100.00
70815;BME280;58428;49.478;10.986;2023-04-07T05:36:19;98373.38;;;4.47;100.00
70815;BME280;58428;49.478;10.986;2023-04-07T05:39:24;98362.03;;;4.55;100.00
70815;BME280;58428;49.478;10.986;2023-04-07T05:42:01;98372.38;;;4.79;100.00
70815;BME280;58428;49.478;10.986;2023-04-07T05:44:27;98360.94;;;4.92;100.00
70815;BME280;58428;49.478;10.986;2023-04-07T05:47:11;98362.91;;;5.05;100.00
70815;BME280;58428;49.478;10.986;2023-04-07T05:49:45;98359.56;;;5.26;100.00
70815;BME280;58428;49.478;10.986;2023-04-07T05:52:14;98357.75;;;5.40;100.00
70815;BME280;58428;49.478;10.986;2023-04-07T05:54:44;98354.28;;;5.53;100.00
70815;BME280;58428;49.478;10.986;2023-04-07T05:57:42;98366.91;;;5.52;100.00
70815;BME280;58428;49.478;10.986;2023-04-07T06:00:16;98365.69;;;5.45;100.00
70815;BME280;58428;49.478;10.986;2023-04-07T06:03:04;98362.25;;;5.58;100.00
70815;BME280;58428;49.478;10.986;2023-04-07T06:05:50;98360.34;;;5.45;100.00
70815;BME280;58428;49.478;10.986;2023-04-07T06:11:16;98368.25;;;5.68;100.00
70815;BME280;58428;49.478;10.986;2023-04-07T06:13:55;98362.44;;;5.80;100.00
70815;BME280;58428;49.478;10.986;2023-04-07T06:17:05;98364.16;;;6.02;100.00
70815;BME280;58428;49.478;10.986;2023-04-07T06:19:36;98362.97;;;6.22;100.00
70815;BME280;58428;49.478;10.986;2023-04-07T06:22:10;98357.75;;;6.38;100.00
70815;BME280;58428;49.478;10.986;2023-04-07T06:24:44;98362.75;;;6.31;100.00
70815;BME280;58428;49.478;10.986;2023-04-07T06:27:12;98362.84;;;6.40;100.00
70815;BME280;58428;49.478;10.986;2023-04-07T06:29:41;98359.94;;;6.50;100.00
70815;BME280;58428;49.478;10.986;2023-04-07T06:32:07;98360.47;;;6.73;100.00
70815;BME280;58428;49.478;10.986;2023-04-07T06:34:36;98357.66;;;6.92;100.00
70815;BME280;58428;49.478;10.986;2023-04-07T06:37:01;98356.56;;;6.79;100.00
70815;BME280;58428;49.478;10.986;2023-04-07T06:39:29;98361.53;;;6.99;100.00
70815;BME280;58428;49.478;10.986;2023-04-07T06:41:55;98358.75;;;6.91;100.00
70815;BME280;58428;49.478;10.986;2023-04-07T06:44:21;98364.31;;;6.94;100.00
70815;BME280;58428;49.478;10.986;2023-04-07T06:46:46;98356.41;;;7.11;100.00
70815;BME280;58428;49.478;10.986;2023-04-07T06:49:16;98364.47;;;7.32;100.00
70815;BME280;58428;49.478;10.986;2023-04-07T06:51:47;98362.75;;;7.36;100.00
70815;BME280;58428;49.478;10.986;2023-04-07T06:54:13;98352.03;;;7.45;100.00
70815;BME280;58428;49.478;10.986;2023-04-07T06:56:41;98356.25;;;7.59;100.00
70815;BME280;58428;49.478;10.986;2023-04-07T06:59:13;98349.56;;;7.78;100.00
70815;BME280;58428;49.478;10.986;2023-04-07T07:01:47;98348.06;;;7.94;100.00
70815;BME280;58428;49.478;10.986;2023-04-07T07:04:16;98337.13;;;7.99;100.00
70815;BME280;58428;49.478;10.986;2023-04-07T07:06:46;98340.09;;;8.11;100.00
70815;BME280;58428;49.478;10.986;2023-04-07T07:09:12;98337.88;;;8.13;100.00
70815;BME280;58428;49.478;10.986;2023-04-07T07:11:40;98344.72;;;8.27;100.00
70815;BME280;58428;49.478;10.986;2023-04-07T07:14:13;98339.78;;;8.21;100.00
70815;BME280;58428;49.478;10.986;2023-04-07T07:16:44;98333.44;;;8.17;100.00
70815;BME280;58428;49.478;10.986;2023-04-07T07:19:15;98334.41;;;8.29;100.00
70815;BME280;58428;49.478;10.986;2023-04-07T07:22:02;98338.94;;;8.59;100.00
70815;BME280;58428;49.478;10.986;2023-04-07T07:24:29;98339.91;;;8.80;100.00
70815;BME280;58428;49.478;10.986;2023-04-07T07:27:03;98338.31;;;8.79;100.00
70815;BME280;58428;49.478;10.986;2023-04-07T07:29:38;98344.19;;;8.80;100.00
70815;BME280;58428;49.478;10.986;2023-04-07T07:32:10;98337.88;;;8.85;100.00
70815;BME280;58428;49.478;10.986;2023-04-07T07:34:46;98339.94;;;9.05;100.00
70815;BME280;58428;49.478;10.986;2023-04-07T07:37:19;98340.06;;;9.25;100.00
70815;BME280;58428;49.478;10.986;2023-04-07T07:39:45;98342.13;;;9.36;100.00
70815;BME280;58428;49.478;10.986;2023-04-07T07:42:12;98343.69;;;9.54;100.00
70815;BME280;58428;49.478;10.986;2023-04-07T07:44:41;98339.19;;;9.75;100.00
70815;BME280;58428;49.478;10.986;2023-04-07T07:47:06;98335.03;;;9.86;100.00
70815;BME280;58428;49.478;10.986;2023-04-07T07:49:32;98336.97;;;9.77;100.00
70815;BME280;58428;49.478;10.986;2023-04-07T07:52:00;98334.06;;;9.98;100.00
70815;BME280;58428;49.478;10.986;2023-04-07T07:54:39;98347.84;;;10.14;100.00
70815;BME280;58428;49.478;10.986;2023-04-07T07:57:15;98332.44;;;10.06;100.00
70815;BME280;58428;49.478;10.986;2023-04-07T07:59:46;98334.69;;;10.04;100.00
70815;BME280;58428;49.478;10.986;2023-04-07T08:02:33;98332.78;;;10.33;100.00
70815;BME280;58428;49.478;10.986;2023-04-07T08:05:12;98327.84;;;10.64;100.00
70815;BME280;58428;49.478;10.986;2023-04-07T08:07:49;98333.28;;;10.84;100.00
70815;BME280;58428;49.478;10.986;2023-04-07T08:10:32;98339.31;;;11.09;100.00
70815;BME280;58428;49.478;10.986;2023-04-07T08:13:11;98326.53;;;11.30;100.00
70815;BME280;58428;49.478;10.986;2023-04-07T08:15:38;98331.69;;;11.43;100.00
70815;BME280;58428;49.478;10.986;2023-04-07T08:18:21;98323.97;;;11.54;100.00
70815;BME280;58428;49.478;10.986;2023-04-07T08:20:53;98328.50;;;11.62;100.00
70815;BME280;58428;49.478;10.986;2023-04-07T08:23:24;98325.13;;;11.76;100.00
70815;BME280;58428;49.478;10.986;2023-04-07T08:25:53;98326.63;;;11.86;100.00
70815;BME280;58428;49.478;10.986;2023-04-07T08:28:40;98327.63;;;11.70;100.00
70815;BME280;58428;49.478;10.986;2023-04-07T08:31:15;98328.88;;;11.84;100.00
70815;BME280;58428;49.478;10.986;2023-04-07T08:33:46;98320.25;;;12.02;100.00
70815;BME280;58428;49.478;10.986;2023-04-07T08:36:20;98320.13;;;11.99;100.00
70815;BME280;58428;49.478;10.986;2023-04-07T08:38:46;98321.09;;;11.82;100.00
70815;BME280;58428;49.478;10.986;2023-04-07T08:44:49;98319.47;;;11.58;100.00
70815;BME280;58428;49.478;10.986;2023-04-07T08:47:18;98321.16;;;11.62;100.00
70815;BME280;58428;49.478;10.986;2023-04-07T08:49:48;98331.53;;;11.60;100.00
70815;BME280;58428;49.478;10.986;2023-04-07T08:52:22;98321.53;;;11.84;100.00
70815;BME280;58428;49.478;10.986;2023-04-07T08:54:53;98330.63;;;11.88;100.00
70815;BME280;58428;49.478;10.986;2023-04-07T08:57:29;98325.69;;;11.70;100.00
70815;BME280;58428;49.478;10.986;2023-04-07T08:59:58;98328.97;;;11.64;100.00
70815;BME280;58428;49.478;10.986;2023-04-07T09:02:28;98334.13;;;12.01;100.00
70815;BME280;58428;49.478;10.986;2023-04-07T09:04:55;98337.41;;;11.94;100.00
70815;BME280;58428;49.478;10.986;2023-04-07T09:07:32;98327.50;;;12.22;100.00
70815;BME280;58428;49.478;10.986;2023-04-07T09:09:58;98328.53;;;12.29;100.00
70815;BME280;58428;49.478;10.986;2023-04-07T09:12:26;98332.44;;;12.08;96.91
70815;BME280;58428;49.478;10.986;2023-04-07T09:18:00;98327.22;;;11.91;98.46
70815;BME280;58428;49.478;10.986;2023-04-07T09:23:37;98327.50;;;12.22;98.48
70815;BME280;58428;49.478;10.986;2023-04-07T09:26:23;98322.63;;;12.63;98.74
70815;BME280;58428;49.478;10.986;2023-04-07T09:29:00;98318.53;;;12.69;95.19
70815;BME280;58428;49.478;10.986;2023-04-07T09:31:49;98325.66;;;12.61;97.35
70815;BME280;58428;49.478;10.986;2023-04-07T09:34:33;98318.53;;;12.69;95.92
70815;BME280;58428;49.478;10.986;2023-04-07T09:37:04;98317.88;;;12.72;95.44
70815;BME280;58428;49.478;10.986;2023-04-07T09:39:50;98316.19;;;12.55;94.76
70815;BME280;58428;49.478;10.986;2023-04-07T09:42:16;98319.03;;;12.35;96.15
70815;BME280;58428;49.478;10.986;2023-04-07T09:44:45;98317.53;;;12.26;95.41
70815;BME280;58428;49.478;10.986;2023-04-07T09:47:10;98315.16;;;12.13;96.77
70815;BME280;58428;49.478;10.986;2023-04-07T09:49:51;98306.31;;;11.92;97.00
70815;BME280;58428;49.478;10.986;2023-04-07T09:52:51;98304.06;;;11.94;98.58
70815;BME280;58428;49.478;10.986;2023-04-07T09:55:20;98301.38;;;12.17;97.89
70815;BME280;58428;49.478;10.986;2023-04-07T09:57:51;98304.88;;;12.42;98.83
70815;BME280;58428;49.478;10.986;2023-04-07T10:00:28;98301.03;;;12.66;98.28
70815;BME280;58428;49.478;10.986;2023-04-07T10:02:57;98296.72;;;12.89;97.01
70815;BME280;58428;49.478;10.986;2023-04-07T10:05:23;98307.09;;;12.99;94.31
70815;BME280;58428;49.478;10.986;2023-04-07T10:07:49;98296.31;;;13.02;93.63
70815;BME280;58428;49.478;10.986;2023-04-07T10:10:16;98295.78;;;12.73;91.05
70815;BME280;58428;49.478;10.986;2023-04-07T10:12:43;98305.78;;;12.34;91.60
70815;BME280;58428;49.478;10.986;2023-04-07T10:15:12;98290.88;;;12.40;94.02
70815;BME280;58428;49.478;10.986;2023-04-07T10:17:44;98291.25;;;12.77;94.61
70815;BME280;58428;49.478;10.986;2023-04-07T10:20:12;98293.38;;;13.07;92.70
70815;BME280;58428;49.478;10.986;2023-04-07T10:22:40;98291.50;;;13.23;90.70
70815;BME280;58428;49.478;10.986;2023-04-07T10:25:08;98301.19;;;13.36;89.91
70815;BME280;58428;49.478;10.986;2023-04-07T10:27:39;98289.50;;;13.35;87.71
70815;BME280;58428;49.478;10.986;2023-04-07T10:30:13;98293.94;;;13.40;87.86
70815;BME280;58428;49.478;10.986;2023-04-07T10:32:50;98295.72;;;13.48;86.55
70815;BME280;58428;49.478;10.986;2023-04-07T10:35:22;98289.59;;;13.66;86.97
70815;BME280;58428;49.478;10.986;2023-04-07T10:40:33;98292.06;;;14.13;85.93
70815;BME280;58428;49.478;10.986;2023-04-07T10:42:59;98291.44;;;14.20;82.36
70815;BME280;58428;49.478;10.986;2023-04-07T10:48:14;98296.78;;;14.16;78.70
70815;BME280;58428;49.478;10.986;2023-04-07T10:50:41;98289.53;;;13.78;77.10
70815;BME280;58428;49.478;10.986;2023-04-07T10:53:13;98294.41;;;13.57;78.35
70815;BME280;58428;49.478;10.986;2023-04-07T10:55:45;98294.06;;;13.74;81.84
70815;BME280;58428;49.478;10.986;2023-04-07T10:58:20;98287.53;;;13.90;79.73
70815;BME280;58428;49.478;10.986;2023-04-07T11:03:24;98286.72;;;14.17;81.55
70815;BME280;58428;49.478;10.986;2023-04-07T11:05:49;98288.94;;;14.45;77.31
70815;BME280;58428;49.478;10.986;2023-04-07T11:08:40;98282.88;;;14.86;77.33
70815;BME280;58428;49.478;10.986;2023-04-07T11:11:13;98279.59;;;14.96;75.26
70815;BME280;58428;49.478;10.986;2023-04-07T11:13:49;98285.28;;;15.06;74.74
70815;BME280;58428;49.478;10.986;2023-04-07T11:16:33;98276.56;;;15.16;74.58
70815;BME280;58428;49.478;10.986;2023-04-07T11:18:59;98271.91;;;15.16;72.34
70815;BME280;58428;49.478;10.986;2023-04-07T11:21:26;98277.13;;;14.72;71.62
70815;BME280;58428;49.478;10.986;2023-04-07T11:23:51;98280.75;;;14.61;69.85
70815;BME280;58428;49.478;10.986;2023-04-07T11:26:17;98274.13;;;14.12;71.36
70815;BME280;58428;49.478;10.986;2023-04-07T11:28:52;98275.56;;;13.64;71.42
70815;BME280;58428;49.478;10.986;2023-04-07T11:31:26;98272.44;;;13.93;75.79
70815;BME280;58428;49.478;10.986;2023-04-07T11:34:27;98263.59;;;13.96;73.96
70815;BME280;58428;49.478;10.986;2023-04-07T11:36:53;98267.53;;;13.83;73.96
70815;BME280;58428;49.478;10.986;2023-04-07T11:39:26;98267.22;;;14.15;74.20
70815;BME280;58428;49.478;10.986;2023-04-07T11:42:05;98263.22;;;14.43;73.23
70815;BME280;58428;49.478;10.986;2023-04-07T11:44:36;98265.06;;;14.39;71.12
70815;BME280;58428;49.478;10.986;2023-04-07T11:47:09;98268.16;;;14.37;72.67
70815;BME280;58428;49.478;10.986;2023-04-07T11:49:43;98271.63;;;14.53;69.79
70815;BME280;58428;49.478;10.986;2023-04-07T11:52:12;98263.16;;;14.73;71.73
70815;BME280;58428;49.478;10.986;2023-04-07T11:54:51;98262.00;;;14.74;70.68
70815;BME280;58428;49.478;10.986;2023-04-07T11:57:30;98256.97;;;14.58;71.80
70815;BME280;58428;49.478;10.986;2023-04-07T12:03:24;98261.03;;;14.33;71.59
70815;BME280;58428;49.478;10.986;2023-04-07T12:05:51;98253.44;;;14.23;73.82
70815;BME280;58428;49.478;10.986;2023-04-07T12:08:19;98242.78;;;14.34;73.96
70815;BME280;58428;49.478;10.986;2023-04-07T12:11:02;98245.25;;;14.38;73.06
70815;BME280;58428;49.478;10.986;2023-04-07T12:13:28;98245.91;;;14.51;74.27
70815;BME280;58428;49.478;10.986;2023-04-07T12:16:05;98249.88;;;14.72;70.58
70815;BME280;58428;49.478;10.986;2023-04-07T12:18:39;98250.66;;;14.72;71.32
70815;BME280;58428;49.478;10.986;2023-04-07T12:21:10;98250.63;;;14.69;70.00
70815;BME280;58428;49.478;10.986;2023-04-07T12:23:53;98253.03;;;14.74;72.38
70815;BME280;58428;49.478;10.986;2023-04-07T12:26:40;98240.59;;;15.10;72.98
70815;BME280;58428;49.478;10.986;2023-04-07T12:29:08;98253.19;;;15.34;69.89
70815;BME280;58428;49.478;10.986;2023-04-07T12:31:35;98247.63;;;15.49;69.78
70815;BME280;58428;49.478;10.986;2023-04-07T12:34:13;98255.91;;;15.52;68.91
70815;BME280;58428;49.478;10.986;2023-04-07T12:36:40;98255.22;;;15.59;70.63
70815;BME280;58428;49.478;10.986;2023-04-07T12:39:06;98256.91;;;15.45;67.79
70815;BME280;58428;49.478;10.986;2023-04-07T12:41:34;98253.53;;;15.51;71.00
70815;BME280;58428;49.478;10.986;2023-04-07T12:44:02;98254.44;;;15.58;70.58
70815;BME280;58428;49.478;10.986;2023-04-07T12:46:38;98252.69;;;15.69;70.21
70815;BME280;58428;49.478;10.986;2023-04-07T12:49:29;98255.41;;;15.69;67.99
70815;BME280;58428;49.478;10.986;2023-04-07T12:52:09;98256.69;;;15.53;68.82
70815;BME280;58428;49.478;10.986;2023-04-07T12:54:38;98248.94;;;15.36;69.77
70815;BME280;58428;49.478;10.986;2023-04-07T12:57:04;98253.53;;;15.13;72.15
70815;BME280;58428;49.478;10.986;2023-04-07T12:59:29;98250.91;;;14.83;74.31
70815;BME280;58428;49.478;10.986;2023-04-07T13:02:00;98252.00;;;14.97;76.14
70815;BME280;58428;49.478;10.986;2023-04-07T13:04:27;98251.84;;;14.72;78.46
70815;BME280;58428;49.478;10.986;2023-04-07T13:10:02;98243.91;;;14.48;82.13
70815;BME280;58428;49.478;10.986;2023-04-07T13:12:34;98258.00;;;14.53;82.20
70815;BME280;58428;49.478;10.986;2023-04-07T13:15:34;98254.63;;;14.75;82.15
70815;BME280;58428;49.478;10.986;2023-04-07T13:18:46;98246.78;;;14.89;82.33
70815;BME280;58428;49.478;10.986;2023-04-07T13:21:41;98257.97;;;15.03;81.73
70815;BME280;58428;49.478;10.986;2023-04-07T13:24:09;98254.06;;;14.85;82.43
70815;BME280;58428;49.478;10.986;2023-04-07T13:27:02;98253.06;;;14.93;83.96
70815;BME280;58428;49.478;10.986;2023-04-07T13:29:31;98254.06;;;15.04;84.65
70815;BME280;58428;49.478;10.986;2023-04-07T13:32:08;98251.78;;;15.06;83.31
70815;BME280;58428;49.478;10.986;2023-04-07T13:34:40;98240.97;;;15.09;83.90
70815;BME280;58428;49.478;10.986;2023-04-07T13:37:13;98236.66;;;14.89;84.08
70815;BME280;58428;49.478;10.986;2023-04-07T13:39:56;98243.81;;;14.97;84.84
70815;BME280;58428;49.478;10.986;2023-04-07T13:42:55;98249.44;;;15.04;84.85
70815;BME280;58428;49.478;10.986;2023-04-07T13:45:33;98245.75;;;14.78;85.02
70815;BME280;58428;49.478;10.986;2023-04-07T13:48:11;98249.16;;;14.90;84.81
70815;BME280;58428;49.478;10.986;2023-04-07T13:50:37;98251.31;;;14.66;84.37
70815;BME280;58428;49.478;10.986;2023-04-07T13:53:14;98244.41;;;14.53;84.55
70815;BME280;58428;49.478;10.986;2023-04-07T13:55:39;98243.09;;;14.47;85.28
70815;BME280;58428;49.478;10.986;2023-04-07T13:58:05;98238.59;;;14.55;85.19
70815;BME280;58428;49.478;10.986;2023-04-07T14:00:31;98242.16;;;14.40;84.53
70815;BME280;58428;49.478;10.986;2023-04-07T14:03:12;98242.25;;;14.28;85.41
70815;BME280;58428;49.478;10.986;2023-04-07T14:05:41;98247.63;;;14.40;85.78
70815;BME280;58428;49.478;10.986;2023-04-07T14:08:12;98240.25;;;14.59;86.31
70815;BME280;58428;49.478;10.986;2023-04-07T14:11:05;98246.63;;;14.48;86.28